createdAt,value
2018-03-06T00:02:05.249Z,62.50
2018-03-06T00:04:33.523Z,62.12
2018-03-06T00:07:02.561Z,61.58
2018-03-06T00:09:30.840Z,61.89
2018-03-06T00:11:59.104Z,62.07
2018-03-06T00:14:28.153Z,62.55
2018-03-06T00:16:56.415Z,61.85
2018-03-06T00:19:25.453Z,61.38
2018-03-06T00:21:53.719Z,61.16
2018-03-06T00:24:21.995Z,61.13
2018-03-06T00:26:51.027Z,60.69
2018-03-06T00:29:19.303Z,61.08
2018-03-06T00:31:47.570Z,61.07
2018-03-06T00:34:16.608Z,61.23
2018-03-06T00:36:45.640Z,61.02
2018-03-06T00:39:14.687Z,61.58
2018-03-06T00:41:43.716Z,61.82
2018-03-06T00:44:11.991Z,61.53
2018-03-06T00:46:41.024Z,61.67
2018-03-06T00:49:09.299Z,62.57
2018-03-06T00:51:37.566Z,62.94
2018-03-06T00:54:05.839Z,61.52
2018-03-06T00:56:34.104Z,61.67
2018-03-06T00:59:02.380Z,62.45
2018-03-06T01:01:30.640Z,62.11
2018-03-06T01:03:58.919Z,61.56
2018-03-06T01:06:27.951Z,61.23
2018-03-06T01:08:56.991Z,61.42
2018-03-06T01:11:25.259Z,61.37
2018-03-06T01:13:53.540Z,60.91
2018-03-06T01:16:21.806Z,60.63
2018-03-06T01:18:50.079Z,61.01
2018-03-06T01:21:19.107Z,60.94
2018-03-06T01:23:47.387Z,61.29
2018-03-06T01:26:15.651Z,62.03
2018-03-06T01:28:43.914Z,61.76
2018-03-06T01:31:12.188Z,62.62
2018-03-06T01:33:40.466Z,62.11
2018-03-06T01:36:08.740Z,61.48
2018-03-06T01:38:36.999Z,61.64
2018-03-06T01:41:06.041Z,61.36
2018-03-06T01:43:34.302Z,60.96
2018-03-06T01:46:03.339Z,61.21
2018-03-06T01:48:31.604Z,61.27
2018-03-06T01:50:59.878Z,61.49
2018-03-06T01:53:28.904Z,61.17
2018-03-06T01:55:57.175Z,61.20
2018-03-06T01:58:26.204Z,61.07
2018-03-06T02:00:54.476Z,60.97
2018-03-06T02:03:23.503Z,63.50
2018-03-06T02:05:51.776Z,62.73
2018-03-06T02:08:20.800Z,61.67
2018-03-06T02:10:49.825Z,61.47
2018-03-06T02:13:18.087Z,62.15
2018-03-06T02:15:46.359Z,62.22
2018-03-06T02:18:15.388Z,61.92
2018-03-06T02:20:43.660Z,62.05
2018-03-06T02:23:12.687Z,62.11
2018-03-06T02:25:40.958Z,61.45
2018-03-06T02:28:09.223Z,61.22
2018-03-06T02:30:38.264Z,60.70
2018-03-06T02:33:06.519Z,60.29
2018-03-06T02:35:35.551Z,59.96
2018-03-06T02:38:03.816Z,59.56
2018-03-06T02:40:32.088Z,59.81
2018-03-06T02:43:00.351Z,59.94
2018-03-06T02:45:29.387Z,59.80
2018-03-06T02:47:57.652Z,59.81
2018-03-06T02:50:25.924Z,60.23
2018-03-06T02:52:54.183Z,59.79
2018-03-06T02:55:22.460Z,60.06
2018-03-06T02:57:51.484Z,59.95
2018-03-06T03:00:19.745Z,60.64
2018-03-06T03:02:48.012Z,62.26
2018-03-06T03:05:16.263Z,62.10
2018-03-06T03:07:44.534Z,61.33
2018-03-06T03:10:12.791Z,61.56
2018-03-06T03:12:41.060Z,61.32
2018-03-06T03:15:09.315Z,61.08
2018-03-06T03:17:37.583Z,60.86
2018-03-06T03:20:05.839Z,60.85
2018-03-06T03:22:34.118Z,61.19
2018-03-06T03:25:02.463Z,60.98
2018-03-06T03:27:30.732Z,60.65
2018-03-06T03:29:59.759Z,60.48
2018-03-06T03:32:28.028Z,60.21
2018-03-06T03:34:57.061Z,60.14
2018-03-06T03:37:25.332Z,60.21
2018-03-06T03:39:53.595Z,60.55
2018-03-06T03:42:22.687Z,60.42
2018-03-06T03:44:50.891Z,60.36
2018-03-06T03:47:19.928Z,60.45
2018-03-06T03:49:48.187Z,60.66
2018-03-06T03:52:17.221Z,61.00
2018-03-06T03:54:45.480Z,61.07
2018-03-06T03:57:14.552Z,60.31
2018-03-06T03:59:43.575Z,59.63
2018-03-06T04:02:11.847Z,59.11
2018-03-06T04:04:40.103Z,59.37
2018-03-06T04:07:08.371Z,59.86
2018-03-06T04:09:37.395Z,59.82
2018-03-06T04:12:05.663Z,59.10
2018-03-06T04:14:34.691Z,58.88
2018-03-06T04:17:02.959Z,58.99
2018-03-06T04:19:31.995Z,59.04
2018-03-06T04:22:00.280Z,59.12
2018-03-06T04:24:28.536Z,59.19
2018-03-06T04:26:56.808Z,58.89
2018-03-06T04:29:25.080Z,58.60
2018-03-06T04:31:53.335Z,58.80
2018-03-06T04:34:22.368Z,59.41
2018-03-06T04:36:50.623Z,60.54
2018-03-06T04:39:18.892Z,59.88
2018-03-06T04:41:47.915Z,59.93
2018-03-06T04:44:16.183Z,59.97
2018-03-06T04:46:45.208Z,60.88
2018-03-06T04:49:13.480Z,60.54
2018-03-06T04:51:42.508Z,60.05
2018-03-06T04:54:10.784Z,60.02
2018-03-06T04:56:39.040Z,59.92
2018-03-06T04:59:07.311Z,59.88
2018-03-06T05:01:35.596Z,60.26
2018-03-06T05:04:03.845Z,60.27
2018-03-06T05:06:32.103Z,60.39
2018-03-06T05:09:01.139Z,60.61
2018-03-06T05:11:29.395Z,60.39
2018-03-06T05:13:58.480Z,60.55
2018-03-06T05:16:26.732Z,60.59
2018-03-06T05:18:55.003Z,61.10
2018-03-06T05:21:23.259Z,60.61
2018-03-06T05:23:51.524Z,61.18
2018-03-06T05:26:19.787Z,61.78
2018-03-06T05:28:48.820Z,61.99
2018-03-06T05:31:17.082Z,61.25
2018-03-06T05:33:45.349Z,60.75
2018-03-06T05:36:13.602Z,60.40
2018-03-06T05:38:41.876Z,60.49
2018-03-06T05:41:10.131Z,60.61
2018-03-06T05:43:38.399Z,60.33
2018-03-06T05:46:06.659Z,60.05
2018-03-06T05:48:34.923Z,60.49
2018-03-06T05:51:03.180Z,60.30
2018-03-06T05:53:31.451Z,61.30
2018-03-06T05:55:59.707Z,61.35
2018-03-06T05:58:27.964Z,60.93
2018-03-06T06:00:56.233Z,61.95
2018-03-06T06:03:24.491Z,61.58
2018-03-06T06:05:53.527Z,61.40
2018-03-06T06:08:22.875Z,61.48
2018-03-06T06:10:51.959Z,61.59
2018-03-06T06:13:20.218Z,61.09
2018-03-06T06:15:49.252Z,61.23
2018-03-06T06:18:17.519Z,61.34
2018-03-06T06:20:46.547Z,62.07
2018-03-06T06:23:14.811Z,62.11
2018-03-06T06:25:43.842Z,61.78
2018-03-06T06:28:12.095Z,61.43
2018-03-06T06:30:41.247Z,61.40
2018-03-06T06:33:09.504Z,62.11
2018-03-06T06:35:38.542Z,61.51
2018-03-06T06:38:06.803Z,61.28
2018-03-06T06:40:35.831Z,61.25
2018-03-06T06:43:04.088Z,60.88
2018-03-06T06:45:33.120Z,61.57
2018-03-06T06:48:01.377Z,60.90
2018-03-06T06:50:30.411Z,61.77
2018-03-06T06:52:58.679Z,62.82
2018-03-06T06:55:27.715Z,62.19
2018-03-06T06:57:55.975Z,61.80
2018-03-06T07:00:24.243Z,61.86
2018-03-06T07:02:52.872Z,62.16
2018-03-06T07:05:21.907Z,62.55
2018-03-06T07:07:50.167Z,62.64
2018-03-06T07:10:19.210Z,63.47
2018-03-06T07:12:48.231Z,63.06
2018-03-06T07:15:16.504Z,62.90
2018-03-06T07:17:44.762Z,62.09
2018-03-06T07:20:13.035Z,61.76
2018-03-06T07:22:42.064Z,61.21
2018-03-06T07:25:10.342Z,60.95
2018-03-06T07:27:39.368Z,61.00
2018-03-06T07:30:07.635Z,60.46
2018-03-06T07:32:36.664Z,60.71
2018-03-06T07:35:05.163Z,60.70
2018-03-06T07:37:33.419Z,61.05
2018-03-06T07:40:02.815Z,61.07
2018-03-06T07:42:31.068Z,60.84
2018-03-06T07:45:00.100Z,60.47
2018-03-06T07:47:28.359Z,60.56
2018-03-06T07:49:56.628Z,61.54
2018-03-06T07:52:24.887Z,61.63
2018-03-06T07:54:53.920Z,61.68
2018-03-06T07:57:22.167Z,61.47
2018-03-06T07:59:50.443Z,61.24
2018-03-06T08:02:18.694Z,60.85
2018-03-06T08:04:46.955Z,60.39
2018-03-06T08:07:15.976Z,60.76
2018-03-06T08:09:44.239Z,61.16
2018-03-06T08:12:12.491Z,60.11
2018-03-06T08:14:40.745Z,59.74
2018-03-06T08:17:09.011Z,59.68
2018-03-06T08:19:38.023Z,60.10
2018-03-06T08:22:07.051Z,60.53
2018-03-06T08:24:35.308Z,60.37
2018-03-06T08:27:04.340Z,60.29
2018-03-06T08:29:32.596Z,59.95
2018-03-06T08:32:00.860Z,59.34
2018-03-06T08:37:03.543Z,57.57
2018-03-06T08:39:31.798Z,58.18
2018-03-06T08:42:00.833Z,57.91
2018-03-06T08:44:29.092Z,56.96
2018-03-06T08:46:58.124Z,57.15
2018-03-06T08:49:26.374Z,56.42
2018-03-06T08:51:54.644Z,58.25
2018-03-06T08:54:22.907Z,58.64
2018-03-06T08:56:51.187Z,57.93
2018-03-06T08:59:19.443Z,57.71
2018-03-06T09:01:48.476Z,57.64
2018-03-06T09:04:16.732Z,56.76
2018-03-06T09:06:44.996Z,56.48
2018-03-06T09:09:13.251Z,55.50
2018-03-06T09:11:41.515Z,55.98
2018-03-06T09:14:10.545Z,56.40
2018-03-06T09:16:38.811Z,53.96
2018-03-06T09:19:07.068Z,52.92
2018-03-06T09:21:36.657Z,51.75
2018-03-06T09:24:04.923Z,54.31
2018-03-06T09:26:33.192Z,54.43
2018-03-06T09:29:02.220Z,52.72
2018-03-06T09:31:30.488Z,53.34
2018-03-06T09:33:59.508Z,52.57
2018-03-06T09:36:27.776Z,49.77
2018-03-06T09:38:56.797Z,50.83
2018-03-06T09:41:25.067Z,51.74
2018-03-06T09:43:54.087Z,49.71
2018-03-06T09:46:22.447Z,49.92
2018-03-06T09:48:50.705Z,46.25
2018-03-06T09:51:18.964Z,46.50
2018-03-06T09:53:47.229Z,43.15
2018-03-06T09:56:15.487Z,43.01
2018-03-06T09:58:43.743Z,44.02
2018-03-06T10:01:12.017Z,43.91
2018-03-06T10:03:40.267Z,43.85
2018-03-06T10:06:08.559Z,43.87
2018-03-06T10:08:36.835Z,43.10
2018-03-06T10:11:05.129Z,43.73
2018-03-06T10:13:33.407Z,43.16
2018-03-06T10:16:01.694Z,43.21
2018-03-06T10:18:29.971Z,43.42
2018-03-06T10:20:58.255Z,43.92
2018-03-06T10:23:26.526Z,43.71
2018-03-06T10:25:54.814Z,44.60
2018-03-06T10:28:23.092Z,44.98
2018-03-06T10:30:51.387Z,45.40
2018-03-06T10:33:19.674Z,45.50
2018-03-06T10:35:47.963Z,45.06
2018-03-06T10:38:16.244Z,45.01
2018-03-06T10:40:44.544Z,45.03
2018-03-06T10:43:12.824Z,46.65
2018-03-06T10:45:41.116Z,46.33
2018-03-06T10:48:09.391Z,45.76
2018-03-06T10:50:38.448Z,46.05
2018-03-06T10:53:06.740Z,45.46
2018-03-06T10:55:35.020Z,45.34
2018-03-06T10:58:03.320Z,44.60
2018-03-06T11:00:49.259Z,44.68
2018-03-06T11:03:23.360Z,44.90
2018-03-06T11:05:52.427Z,44.95
2018-03-06T11:08:20.683Z,44.11
2018-03-06T11:10:49.716Z,43.94
2018-03-06T11:13:17.972Z,44.12
2018-03-06T11:15:46.991Z,43.51
2018-03-06T11:18:16.032Z,43.27
2018-03-06T11:20:45.060Z,43.09
2018-03-06T11:23:13.318Z,42.69
2018-03-06T11:25:41.572Z,41.80
2018-03-06T11:28:10.605Z,41.41
2018-03-06T11:30:38.866Z,40.58
2018-03-06T11:33:07.896Z,40.24
2018-03-06T11:35:36.151Z,39.49
2018-03-06T11:38:04.423Z,39.51
2018-03-06T11:40:32.678Z,40.41
2018-03-06T11:43:00.983Z,39.56
2018-03-06T11:45:29.244Z,39.91
2018-03-06T11:47:57.545Z,40.11
2018-03-06T11:50:26.527Z,39.22
2018-03-06T11:52:54.797Z,39.00
2018-03-06T11:55:23.815Z,38.57
2018-03-06T11:57:52.847Z,38.05
2018-03-06T12:00:21.102Z,37.63
2018-03-06T12:02:50.135Z,39.31
2018-03-06T12:05:18.395Z,40.19
2018-03-06T12:07:47.427Z,40.04
2018-03-06T12:10:16.611Z,39.86
2018-03-06T12:12:45.640Z,39.46
2018-03-06T12:15:13.895Z,39.48
2018-03-06T12:17:42.159Z,39.02
2018-03-06T12:20:10.415Z,38.60
2018-03-06T12:22:38.683Z,38.38
2018-03-06T12:25:07.703Z,37.93
2018-03-06T12:27:35.968Z,39.37
2018-03-06T12:30:05.015Z,38.92
2018-03-06T12:32:33.263Z,38.56
2018-03-06T12:35:02.288Z,38.06
2018-03-06T12:37:30.557Z,37.99
2018-03-06T12:39:59.586Z,37.31
2018-03-06T12:42:27.847Z,37.01
2018-03-06T12:44:56.873Z,37.07
2018-03-06T12:47:25.138Z,36.76
2018-03-06T12:49:54.168Z,36.79
2018-03-06T12:52:22.435Z,37.35
2018-03-06T12:54:51.487Z,37.81
2018-03-06T12:57:19.723Z,37.64
2018-03-06T12:59:47.974Z,37.39
2018-03-06T13:02:16.599Z,36.78
2018-03-06T13:04:44.851Z,36.17
2018-03-06T13:07:13.174Z,34.13
2018-03-06T13:09:41.534Z,33.45
2018-03-06T13:12:09.795Z,33.24
2018-03-06T13:14:38.048Z,32.75
2018-03-06T13:17:06.311Z,32.50
2018-03-06T13:19:34.567Z,31.82
2018-03-06T13:22:02.831Z,35.76
2018-03-06T13:24:31.853Z,38.84
2018-03-06T13:27:00.244Z,40.91
2018-03-06T13:29:28.501Z,41.40
2018-03-06T13:31:56.760Z,42.65
2018-03-06T13:34:25.019Z,42.72
2018-03-06T13:36:53.317Z,43.49
2018-03-06T13:39:22.300Z,44.31
2018-03-06T13:41:50.568Z,44.86
2018-03-06T13:44:18.821Z,44.49
2018-03-06T13:46:47.084Z,44.95
2018-03-06T13:49:15.340Z,44.85
2018-03-06T13:51:44.371Z,45.48
2018-03-06T13:54:12.631Z,45.45
2018-03-06T13:56:40.891Z,45.46
2018-03-06T13:59:09.160Z,45.96
2018-03-06T14:01:37.420Z,45.95
2018-03-06T14:04:05.683Z,45.61
2018-03-06T14:06:34.709Z,46.10
2018-03-06T14:09:02.970Z,46.41
2018-03-06T14:11:31.991Z,46.86
2018-03-06T14:14:01.026Z,46.65
2018-03-06T14:16:29.279Z,46.25
2018-03-06T14:18:58.311Z,45.74
2018-03-06T14:21:26.566Z,45.44
2018-03-06T14:23:54.832Z,45.88
2018-03-06T14:26:23.087Z,45.65
2018-03-06T14:28:51.352Z,45.28
2018-03-06T14:31:19.607Z,47.14
2018-03-06T14:33:47.871Z,46.77
2018-03-06T14:36:16.123Z,46.42
2018-03-06T14:38:44.391Z,47.05
2018-03-06T14:41:13.411Z,46.82
2018-03-06T14:43:41.676Z,46.71
2018-03-06T14:46:09.928Z,47.38
2018-03-06T14:48:38.192Z,47.55
2018-03-06T14:51:06.487Z,47.55
2018-03-06T14:53:35.480Z,46.74
2018-03-06T14:56:03.732Z,46.22
2018-03-06T14:58:31.995Z,46.87
2018-03-06T15:01:00.250Z,46.89
2018-03-06T15:03:28.514Z,47.69
2018-03-06T15:05:57.535Z,49.08
2018-03-06T15:08:25.795Z,49.28
2018-03-06T15:10:54.816Z,49.18
2018-03-06T15:13:23.851Z,49.26
2018-03-06T15:15:52.112Z,49.99
2018-03-06T15:18:21.136Z,49.56
2018-03-06T15:20:49.976Z,49.46
2018-03-06T15:23:18.237Z,50.02
2018-03-06T15:25:46.489Z,49.55
2018-03-06T15:28:15.519Z,49.71
2018-03-06T15:30:43.779Z,50.17
2018-03-06T15:33:12.811Z,50.49
2018-03-06T15:35:41.063Z,50.20
2018-03-06T15:38:09.327Z,50.33
2018-03-06T15:40:37.582Z,50.17
2018-03-06T15:43:05.843Z,49.99
2018-03-06T15:45:34.865Z,49.77
2018-03-06T15:48:03.127Z,49.96
2018-03-06T15:50:32.151Z,49.77
2018-03-06T15:53:01.181Z,49.40
2018-03-06T15:55:29.438Z,49.08
2018-03-06T15:57:58.466Z,48.97
2018-03-06T16:00:26.723Z,48.80
2018-03-06T16:02:55.759Z,48.79
2018-03-06T16:05:24.015Z,48.87
2018-03-06T16:07:52.279Z,48.91
2018-03-06T16:10:20.536Z,49.06
2018-03-06T16:12:48.838Z,49.10
2018-03-06T16:15:17.059Z,49.01
2018-03-06T16:17:45.314Z,49.22
2018-03-06T16:20:13.578Z,49.60
2018-03-06T16:22:41.834Z,49.61
2018-03-06T16:25:10.863Z,49.69
2018-03-06T16:27:39.157Z,49.92
2018-03-06T16:30:07.388Z,50.08
2018-03-06T16:32:35.647Z,50.28
2018-03-06T16:35:03.911Z,50.85
2018-03-06T16:37:32.167Z,51.20
2018-03-06T16:40:00.432Z,51.50
2018-03-06T16:42:28.727Z,51.54
2018-03-06T16:44:56.950Z,51.86
2018-03-06T16:47:25.973Z,52.01
2018-03-06T16:49:54.243Z,52.19
2018-03-06T16:52:23.263Z,52.37
2018-03-06T16:54:51.535Z,52.65
2018-03-06T16:57:20.559Z,52.60
2018-03-06T16:59:48.831Z,52.76
2018-03-06T17:02:17.861Z,52.86
2018-03-06T17:04:46.136Z,53.23
2018-03-06T17:07:15.152Z,53.92
2018-03-06T17:09:43.416Z,54.02
2018-03-06T17:12:12.440Z,54.51
2018-03-06T17:14:41.468Z,55.13
2018-03-06T17:17:09.726Z,55.33
2018-03-06T17:19:38.757Z,55.59
2018-03-06T17:22:07.015Z,56.19
2018-03-06T17:24:36.046Z,56.34
2018-03-06T17:27:04.299Z,56.34
2018-03-06T17:29:32.561Z,56.44
2018-03-06T17:32:00.823Z,56.54
2018-03-06T17:34:29.091Z,57.58
2018-03-06T17:36:57.340Z,57.58
2018-03-06T17:39:25.604Z,57.12
2018-03-06T17:41:53.856Z,57.43
2018-03-06T17:44:22.115Z,57.58
2018-03-06T17:46:51.140Z,57.74
2018-03-06T17:49:20.172Z,58.01
2018-03-06T17:51:48.460Z,58.04
2018-03-06T17:54:16.732Z,58.52
2018-03-06T17:56:44.983Z,58.36
2018-03-06T17:59:13.251Z,58.12
2018-03-06T18:01:41.507Z,58.08
2018-03-06T18:04:09.774Z,57.79
2018-03-06T18:06:38.797Z,57.68
2018-03-06T18:09:07.051Z,57.65
2018-03-06T18:11:35.302Z,57.79
2018-03-06T18:14:03.567Z,57.81
2018-03-06T18:16:31.846Z,58.06
2018-03-06T18:19:00.108Z,58.02
2018-03-06T18:21:28.356Z,57.85
2018-03-06T18:23:56.619Z,57.97
2018-03-06T18:26:24.867Z,57.95
2018-03-06T18:28:53.136Z,57.76
2018-03-06T18:31:21.383Z,57.89
2018-03-06T18:33:49.652Z,58.12
2018-03-06T18:36:18.671Z,58.27
2018-03-06T18:38:46.928Z,58.06
2018-03-06T18:41:15.959Z,57.97
2018-03-06T18:43:44.216Z,58.41
2018-03-06T18:46:12.480Z,58.72
2018-03-06T18:48:40.735Z,58.45
2018-03-06T18:51:10.454Z,58.26
2018-03-06T18:53:38.708Z,58.18
2018-03-06T18:56:06.984Z,57.97
2018-03-06T18:58:35.227Z,57.78
2018-03-06T19:04:31.388Z,58.56
2018-03-06T19:07:14.497Z,58.74
2018-03-06T19:09:42.772Z,58.62
2018-03-06T19:12:11.033Z,58.44
2018-03-06T19:14:39.300Z,58.34
2018-03-06T19:17:07.556Z,58.20
2018-03-06T19:19:35.839Z,58.05
2018-03-06T19:22:04.094Z,58.03
2018-03-06T19:24:32.344Z,57.92
2018-03-06T19:27:00.620Z,58.25
2018-03-06T19:29:29.641Z,58.62
2018-03-06T19:31:57.903Z,59.00
2018-03-06T19:34:26.919Z,59.77
2018-03-06T19:36:55.953Z,59.18
2018-03-06T19:39:24.212Z,58.82
2018-03-06T19:41:53.246Z,58.49
2018-03-06T19:44:21.564Z,58.71
2018-03-06T19:46:50.532Z,58.84
2018-03-06T19:49:18.866Z,58.59
2018-03-06T19:51:47.143Z,58.33
2018-03-06T19:54:15.396Z,58.33
2018-03-06T19:56:43.668Z,58.06
2018-03-06T19:59:12.687Z,57.97
2018-03-06T20:01:41.727Z,57.92
2018-03-06T20:04:09.971Z,57.68
2018-03-06T20:06:39.007Z,57.55
2018-03-06T20:09:07.271Z,57.45
2018-03-06T20:11:36.307Z,57.46
2018-03-06T20:14:04.552Z,57.36
2018-03-06T20:16:33.584Z,57.46
2018-03-06T20:22:04.663Z,57.63
2018-03-06T20:24:39.215Z,57.75
2018-03-06T20:27:07.482Z,57.78
2018-03-06T20:29:36.508Z,57.80
2018-03-06T20:32:10.256Z,57.52
2018-03-06T20:34:38.510Z,58.02
2018-03-06T20:37:06.802Z,58.08
2018-03-06T20:39:40.476Z,58.02
2018-03-06T20:42:08.739Z,57.98
2018-03-06T20:44:37.008Z,57.89
2018-03-06T20:47:10.867Z,58.01
2018-03-06T20:49:39.120Z,58.58
2018-03-06T20:52:07.387Z,58.84
2018-03-06T20:54:41.276Z,58.86
2018-03-06T20:57:09.541Z,58.86
2018-03-06T20:59:37.799Z,58.68
2018-03-06T21:02:06.059Z,58.34
2018-03-06T21:04:35.088Z,58.28
2018-03-06T21:07:03.352Z,58.19
2018-03-06T21:09:31.612Z,58.11
2018-03-06T21:11:59.884Z,58.44
2018-03-06T21:14:28.144Z,58.17
2018-03-06T21:16:56.414Z,58.09
2018-03-06T21:19:24.708Z,58.03
2018-03-06T21:21:52.935Z,57.92
2018-03-06T21:24:21.186Z,57.75
2018-03-06T21:26:49.452Z,57.93
2018-03-06T21:29:18.479Z,58.53
2018-03-06T21:31:46.739Z,58.66
2018-03-06T21:34:15.760Z,58.68
2018-03-06T21:36:44.028Z,58.56
2018-03-06T21:39:12.276Z,58.37
2018-03-06T21:41:40.549Z,58.25
2018-03-06T21:44:08.803Z,58.13
2018-03-06T21:46:37.836Z,58.14
2018-03-06T21:49:06.092Z,58.19
2018-03-06T21:51:35.131Z,58.20
2018-03-06T21:54:03.390Z,58.13
2018-03-06T21:56:32.427Z,58.18
2018-03-06T21:59:00.684Z,58.33
2018-03-06T22:01:29.725Z,58.21
2018-03-06T22:03:57.983Z,58.46
2018-03-06T22:06:27.072Z,58.79
2018-03-06T22:08:55.332Z,58.76
2018-03-06T22:11:23.593Z,58.89
2018-03-06T22:13:51.856Z,59.02
2018-03-06T22:16:20.128Z,58.99
2018-03-06T22:18:49.151Z,59.08
2018-03-06T22:21:18.192Z,59.44
2018-03-06T22:23:46.475Z,59.88
2018-03-06T22:26:14.768Z,59.81
2018-03-06T22:28:43.027Z,60.89
2018-03-06T22:31:11.291Z,60.72
2018-03-06T22:33:39.556Z,60.32
2018-03-06T22:36:07.811Z,60.14
2018-03-06T22:38:36.080Z,59.74
2018-03-06T22:41:04.378Z,59.47
2018-03-06T22:43:32.615Z,59.27
2018-03-06T22:46:00.867Z,59.13
2018-03-06T22:48:29.138Z,59.03
2018-03-06T22:50:57.400Z,59.66
2018-03-06T22:53:26.433Z,60.34
2018-03-06T22:55:54.695Z,60.04
2018-03-06T22:58:22.961Z,60.06
2018-03-06T23:00:51.219Z,59.99
2018-03-06T23:03:20.405Z,59.87
2018-03-06T23:05:48.660Z,59.70
2018-03-06T23:08:16.924Z,59.59
2018-03-06T23:10:45.184Z,60.01
2018-03-06T23:13:13.459Z,60.06
2018-03-06T23:15:41.716Z,60.01
2018-03-06T23:18:09.979Z,59.92
2018-03-06T23:20:38.236Z,59.72
2018-03-06T23:23:06.508Z,59.57
2018-03-06T23:25:34.763Z,59.36
2018-03-06T23:28:03.031Z,59.13
2018-03-06T23:30:31.292Z,58.93
2018-03-06T23:32:59.559Z,58.81
2018-03-06T23:35:27.828Z,58.63
2018-03-06T23:37:56.096Z,58.58
2018-03-06T23:40:24.351Z,58.54
2018-03-06T23:42:52.615Z,58.34
2018-03-06T23:45:20.877Z,58.46
2018-03-06T23:47:49.146Z,58.81
2018-03-06T23:50:17.399Z,58.77
2018-03-06T23:52:45.659Z,58.85
2018-03-06T23:55:14.684Z,58.96
2018-03-06T23:57:42.951Z,58.78
